createdAt,value
2018-09-30T00:00:39.508Z,97.90
2018-09-30T00:03:08.011Z,97.70
2018-09-30T00:05:36.544Z,97.40
2018-09-30T00:08:05.024Z,97.30
2018-09-30T00:10:33.522Z,97.40
2018-09-30T00:13:01.969Z,97.40
2018-09-30T00:15:30.437Z,97.20
2018-09-30T00:17:58.892Z,97.20
2018-09-30T00:20:27.357Z,97.50
2018-09-30T00:22:55.823Z,97.60
2018-09-30T00:25:29.724Z,97.80
2018-09-30T00:27:58.229Z,98.00
2018-09-30T00:30:26.660Z,98.20
2018-09-30T00:32:55.147Z,97.90
2018-09-30T00:35:23.591Z,97.70
2018-09-30T00:37:52.080Z,97.80
2018-09-30T00:40:20.555Z,98.00
2018-09-30T00:42:49.060Z,98.00
2018-09-30T00:45:17.532Z,98.00
2018-09-30T00:47:45.972Z,98.10
2018-09-30T00:50:14.415Z,98.20
2018-09-30T00:52:42.885Z,98.40
2018-09-30T00:55:11.343Z,98.30
2018-09-30T00:57:39.815Z,98.20
2018-09-30T01:00:08.651Z,98.10
2018-09-30T01:02:37.037Z,98.00
2018-09-30T01:05:05.496Z,97.90
2018-09-30T01:07:33.968Z,97.90
2018-09-30T01:10:02.430Z,97.90
2018-09-30T01:12:30.878Z,97.80
2018-09-30T01:14:59.363Z,98.00
2018-09-30T01:17:27.817Z,98.10
2018-09-30T01:19:56.284Z,98.00
2018-09-30T01:22:25.604Z,97.90
2018-09-30T01:24:54.078Z,97.90
2018-09-30T01:27:22.526Z,97.70
2018-09-30T01:29:50.960Z,97.70
2018-09-30T01:32:19.414Z,97.80
2018-09-30T01:34:47.875Z,98.10
2018-09-30T01:37:16.309Z,98.10
2018-09-30T01:39:44.765Z,98.10
2018-09-30T01:42:13.359Z,98.00
2018-09-30T01:44:41.908Z,98.00
2018-09-30T01:47:10.408Z,98.10
2018-09-30T01:49:38.896Z,98.40
2018-09-30T01:52:18.535Z,98.30
2018-09-30T01:54:47.007Z,98.70
2018-09-30T01:57:15.473Z,98.90
2018-09-30T01:59:44.652Z,98.90
2018-09-30T02:02:13.069Z,98.90
2018-09-30T02:04:41.740Z,98.80
2018-09-30T02:07:10.242Z,98.50
2018-09-30T02:09:38.700Z,98.20
2018-09-30T02:12:07.152Z,98.20
2018-09-30T02:14:35.617Z,98.40
2018-09-30T02:17:04.105Z,98.70
2018-09-30T02:19:32.562Z,98.70
2018-09-30T02:22:00.999Z,98.50
2018-09-30T02:24:29.420Z,98.50
2018-09-30T02:26:57.884Z,98.40
2018-09-30T02:29:26.349Z,98.20
2018-09-30T02:31:54.798Z,98.30
2018-09-30T02:34:24.608Z,98.90
2018-09-30T02:36:53.156Z,98.70
2018-09-30T02:39:21.863Z,98.80
2018-09-30T02:41:50.540Z,98.90
2018-09-30T02:44:19.125Z,98.90
2018-09-30T02:46:47.687Z,99.10
2018-09-30T02:49:17.504Z,98.70
2018-09-30T02:51:46.253Z,98.40
2018-09-30T02:54:14.926Z,98.10
2018-09-30T02:56:43.465Z,98.10
2018-09-30T02:59:12.151Z,98.00
2018-09-30T03:01:40.615Z,98.00
2018-09-30T03:04:09.108Z,98.00
2018-09-30T03:06:43.042Z,97.80
2018-09-30T03:09:16.880Z,97.70
2018-09-30T03:11:45.533Z,97.80
2018-09-30T03:14:15.409Z,98.40
2018-09-30T03:16:44.687Z,98.70
2018-09-30T03:19:13.341Z,98.80
2018-09-30T03:21:41.829Z,98.70
2018-09-30T03:24:10.977Z,98.70
2018-09-30T03:26:39.753Z,98.60
2018-09-30T03:29:08.242Z,98.40
2018-09-30T03:31:36.765Z,98.70
2018-09-30T03:34:05.213Z,98.80
2018-09-30T03:36:33.653Z,98.90
2018-09-30T03:39:02.167Z,99.20
2018-09-30T03:41:30.639Z,98.80
2018-09-30T03:43:59.123Z,98.80
2018-09-30T03:46:27.600Z,98.70
2018-09-30T03:48:56.043Z,98.80
2018-09-30T03:51:24.544Z,98.50
2018-09-30T03:53:53.006Z,98.30
2018-09-30T03:56:21.514Z,98.30
2018-09-30T03:58:49.939Z,98.40
2018-09-30T04:01:18.425Z,98.70
2018-09-30T04:03:46.952Z,98.80
2018-09-30T04:06:15.424Z,99.00
2018-09-30T04:08:43.848Z,98.80
2018-09-30T04:11:12.256Z,98.90
2018-09-30T04:13:40.707Z,99.00
2018-09-30T04:16:09.197Z,98.70
2018-09-30T04:18:37.621Z,98.60
2018-09-30T04:21:06.140Z,98.50
2018-09-30T04:23:34.623Z,98.20
2018-09-30T04:26:03.093Z,98.30
2018-09-30T04:28:31.556Z,98.30
2018-09-30T04:31:00.000Z,98.30
2018-09-30T04:33:28.454Z,98.20
2018-09-30T04:35:56.946Z,98.10
2018-09-30T04:38:25.391Z,98.10
2018-09-30T04:40:53.871Z,98.10
2018-09-30T04:43:22.339Z,98.30
2018-09-30T04:45:50.814Z,98.60
2018-09-30T04:48:19.256Z,99.20
2018-09-30T04:50:47.697Z,99.50
2018-09-30T04:53:16.156Z,99.30
2018-09-30T04:55:44.611Z,98.90
2018-09-30T04:58:13.055Z,98.50
2018-09-30T05:00:41.484Z,98.20
2018-09-30T05:03:10.005Z,98.20
2018-09-30T05:05:38.499Z,98.40
2018-09-30T05:08:06.926Z,98.20
2018-09-30T05:10:35.384Z,98.50
2018-09-30T05:13:03.818Z,98.30
2018-09-30T05:15:32.421Z,98.50
2018-09-30T05:18:00.881Z,98.70
2018-09-30T05:20:29.352Z,98.50
2018-09-30T05:22:57.793Z,99.00
2018-09-30T05:25:26.291Z,98.80
2018-09-30T05:27:54.717Z,99.00
2018-09-30T05:30:23.197Z,99.00
2018-09-30T05:32:51.687Z,98.50
2018-09-30T05:35:20.132Z,98.70
2018-09-30T05:37:48.575Z,98.40
2018-09-30T05:40:17.035Z,98.30
2018-09-30T05:42:45.674Z,98.20
2018-09-30T05:45:14.234Z,98.50
2018-09-30T05:47:42.656Z,98.30
2018-09-30T05:50:11.135Z,98.50
2018-09-30T05:52:39.596Z,98.50
2018-09-30T05:55:08.071Z,98.20
2018-09-30T05:57:36.668Z,98.30
2018-09-30T06:00:05.576Z,98.20
2018-09-30T06:02:34.047Z,98.30
2018-09-30T06:05:02.503Z,98.50
2018-09-30T06:07:30.966Z,98.40
2018-09-30T06:09:59.373Z,98.50
2018-09-30T06:12:27.876Z,98.60
2018-09-30T06:14:56.343Z,98.30
2018-09-30T06:17:24.810Z,98.20
2018-09-30T06:19:53.267Z,98.30
2018-09-30T06:22:21.785Z,98.40
2018-09-30T06:24:50.288Z,98.70
2018-09-30T06:27:18.992Z,98.80
2018-09-30T06:29:47.456Z,98.70
2018-09-30T06:32:16.829Z,98.70
2018-09-30T06:34:45.276Z,98.80
2018-09-30T06:37:13.791Z,99.00
2018-09-30T06:39:42.175Z,99.10
2018-09-30T06:42:11.657Z,98.90
2018-09-30T06:44:40.176Z,98.90
2018-09-30T06:47:08.676Z,98.70
2018-09-30T06:49:37.152Z,98.60
2018-09-30T06:52:05.697Z,98.50
2018-09-30T06:54:34.146Z,98.50
2018-09-30T06:57:02.597Z,98.40
2018-09-30T06:59:31.213Z,98.20
2018-09-30T07:01:59.763Z,98.10
2018-09-30T07:04:28.240Z,98.30
2018-09-30T07:06:57.618Z,98.30
2018-09-30T07:09:26.086Z,98.20
2018-09-30T07:11:54.558Z,98.10
2018-09-30T07:14:23.672Z,97.70
2018-09-30T07:16:52.313Z,97.60
2018-09-30T07:19:20.741Z,97.50
2018-09-30T07:21:49.253Z,97.40
2018-09-30T07:24:17.703Z,97.40
2018-09-30T07:26:46.211Z,97.20
2018-09-30T07:29:14.652Z,96.80
2018-09-30T07:31:43.124Z,97.10
2018-09-30T07:34:11.712Z,96.40
2018-09-30T07:36:40.270Z,95.50
2018-09-30T07:39:09.769Z,95.80
2018-09-30T07:41:38.432Z,95.50
2018-09-30T07:44:07.161Z,96.00
2018-09-30T07:46:35.937Z,95.50
2018-09-30T07:49:04.498Z,95.40
2018-09-30T07:51:33.147Z,95.40
2018-09-30T07:54:01.589Z,95.70
2018-09-30T07:56:30.144Z,95.10
2018-09-30T07:58:58.748Z,94.50
2018-09-30T08:01:27.378Z,94.00
2018-09-30T08:03:55.951Z,92.60
2018-09-30T08:06:25.288Z,92.80
2018-09-30T08:08:53.789Z,93.10
2018-09-30T08:11:22.437Z,92.00
2018-09-30T08:13:50.977Z,92.10
2018-09-30T08:16:19.465Z,91.70
2018-09-30T08:18:48.066Z,91.00
2018-09-30T08:21:16.627Z,90.80
2018-09-30T08:23:45.220Z,89.90
2018-09-30T08:26:13.741Z,90.30
2018-09-30T08:28:42.561Z,90.30
2018-09-30T08:31:11.069Z,89.00
2018-09-30T08:33:39.656Z,84.40
2018-09-30T08:36:09.379Z,84.80
2018-09-30T08:38:39.077Z,82.40
2018-09-30T08:41:09.017Z,84.00
2018-09-30T08:43:38.858Z,86.10
2018-09-30T08:46:07.604Z,85.90
2018-09-30T08:48:36.129Z,85.00
2018-09-30T08:51:04.676Z,86.70
2018-09-30T08:53:33.252Z,85.40
2018-09-30T08:56:01.901Z,82.90
2018-09-30T08:58:30.625Z,81.50
2018-09-30T09:00:59.180Z,82.30
2018-09-30T09:03:27.739Z,83.20
2018-09-30T09:05:56.267Z,80.80
2018-09-30T09:08:24.796Z,79.60
2018-09-30T09:10:53.390Z,76.90
2018-09-30T09:13:21.908Z,77.90
2018-09-30T09:15:50.401Z,74.60
2018-09-30T09:18:18.949Z,74.10
2018-09-30T09:20:47.485Z,73.60
2018-09-30T09:23:16.079Z,75.40
2018-09-30T09:25:44.652Z,75.40
2018-09-30T09:28:13.228Z,72.20
2018-09-30T09:30:41.684Z,74.40
2018-09-30T09:33:10.337Z,73.50
2018-09-30T09:35:38.893Z,73.70
2018-09-30T09:38:07.514Z,74.60
2018-09-30T09:40:36.050Z,75.10
2018-09-30T09:43:04.539Z,75.90
2018-09-30T09:45:33.042Z,77.30
2018-09-30T09:48:02.554Z,76.70
2018-09-30T09:50:31.052Z,77.00
2018-09-30T09:52:59.560Z,77.40
2018-09-30T09:55:28.329Z,76.00
2018-09-30T09:57:56.833Z,75.90
2018-09-30T10:00:35.506Z,78.20
2018-09-30T10:03:04.002Z,79.10
2018-09-30T10:05:32.483Z,80.60
2018-09-30T10:08:01.004Z,80.60
2018-09-30T10:10:29.546Z,79.30
2018-09-30T10:12:58.580Z,78.70
2018-09-30T10:15:27.173Z,80.40
2018-09-30T10:17:56.028Z,81.10
2018-09-30T10:20:24.545Z,80.60
2018-09-30T10:22:53.101Z,82.60
2018-09-30T10:25:21.630Z,82.50
2018-09-30T10:27:50.191Z,82.70
2018-09-30T10:30:19.718Z,81.10
2018-09-30T10:32:48.290Z,81.10
2018-09-30T10:35:16.827Z,82.20
2018-09-30T10:37:45.325Z,81.00
2018-09-30T10:40:13.789Z,82.00
2018-09-30T10:42:42.250Z,82.30
2018-09-30T10:45:10.764Z,82.30
2018-09-30T10:47:39.316Z,80.90
2018-09-30T10:50:07.856Z,81.00
2018-09-30T10:52:36.321Z,80.00
2018-09-30T10:55:04.869Z,78.10
2018-09-30T10:57:33.391Z,79.30
2018-09-30T11:00:02.274Z,80.40
2018-09-30T11:02:30.875Z,80.00
2018-09-30T11:04:59.391Z,79.70
2018-09-30T11:07:27.936Z,80.00
2018-09-30T11:09:56.495Z,79.40
2018-09-30T11:12:25.106Z,78.70
2018-09-30T11:14:53.614Z,80.70
2018-09-30T11:17:22.159Z,78.10
2018-09-30T11:19:50.622Z,77.70
2018-09-30T11:22:19.252Z,77.70
2018-09-30T11:24:47.841Z,78.50
2018-09-30T11:27:16.384Z,79.30
2018-09-30T11:29:45.382Z,77.40
2018-09-30T11:32:13.925Z,76.10
2018-09-30T11:34:42.433Z,77.00
2018-09-30T11:37:11.016Z,75.90
2018-09-30T11:39:39.530Z,74.80
2018-09-30T11:42:08.622Z,74.00
2018-09-30T11:44:37.207Z,74.70
2018-09-30T11:47:05.838Z,76.00
2018-09-30T11:49:34.425Z,74.80
2018-09-30T11:52:03.007Z,73.10
2018-09-30T11:54:32.282Z,71.80
2018-09-30T11:57:01.829Z,73.80
2018-09-30T11:59:30.321Z,74.20
2018-09-30T12:01:58.866Z,74.20
2018-09-30T12:04:27.510Z,73.30
2018-09-30T12:06:55.998Z,70.10
2018-09-30T12:09:24.477Z,70.30
2018-09-30T12:11:53.940Z,69.60
2018-09-30T12:14:22.512Z,68.70
2018-09-30T12:16:51.094Z,68.80
2018-09-30T12:19:19.718Z,66.50
2018-09-30T12:21:48.316Z,67.70
2018-09-30T12:24:17.925Z,68.40
2018-09-30T12:26:46.471Z,66.90
2018-09-30T12:29:15.091Z,68.50
2018-09-30T12:31:43.677Z,66.50
2018-09-30T12:34:12.198Z,67.10
2018-09-30T12:36:41.034Z,68.70
2018-09-30T12:39:10.551Z,69.10
2018-09-30T12:41:39.132Z,70.40
2018-09-30T12:44:07.868Z,71.40
2018-09-30T12:46:36.475Z,68.60
2018-09-30T12:49:05.081Z,67.80
2018-09-30T12:51:33.604Z,68.10
2018-09-30T12:54:02.111Z,70.30
2018-09-30T12:56:30.601Z,68.30
2018-09-30T12:58:59.096Z,70.70
2018-09-30T13:01:27.808Z,68.60
2018-09-30T13:03:56.306Z,67.70
2018-09-30T13:06:24.815Z,67.00
2018-09-30T13:08:53.407Z,67.20
2018-09-30T13:11:22.003Z,66.20
2018-09-30T13:13:50.585Z,68.50
2018-09-30T13:16:19.085Z,71.00
2018-09-30T13:18:47.656Z,71.90
2018-09-30T13:21:16.197Z,72.50
2018-09-30T13:23:44.696Z,73.50
2018-09-30T13:26:13.567Z,75.20
2018-09-30T13:28:42.204Z,73.50
2018-09-30T13:31:10.801Z,73.00
2018-09-30T13:33:39.514Z,71.40
2018-09-30T13:36:09.101Z,71.50
2018-09-30T13:38:38.019Z,71.40
2018-09-30T13:41:06.757Z,72.80
2018-09-30T13:43:37.186Z,73.30
2018-09-30T13:46:06.555Z,73.30
2018-09-30T13:48:35.008Z,73.40
2018-09-30T13:51:03.614Z,72.70
2018-09-30T13:53:33.154Z,73.20
2018-09-30T13:56:01.692Z,73.30
2018-09-30T13:58:30.171Z,74.00
2018-09-30T14:00:59.725Z,73.60
2018-09-30T14:03:28.193Z,74.90
2018-09-30T14:05:56.669Z,75.40
2018-09-30T14:08:25.435Z,72.50
2018-09-30T14:10:54.550Z,73.90
2018-09-30T14:13:23.394Z,74.10
2018-09-30T14:15:53.154Z,74.00
2018-09-30T14:18:22.022Z,75.70
2018-09-30T14:20:50.501Z,75.10
2018-09-30T14:23:18.955Z,75.30
2018-09-30T14:25:48.043Z,75.50
2018-09-30T14:28:16.477Z,75.60
2018-09-30T14:30:45.001Z,74.00
2018-09-30T14:33:13.475Z,75.40
2018-09-30T14:35:41.966Z,76.50
2018-09-30T14:38:11.280Z,76.70
2018-09-30T14:40:39.790Z,76.60
2018-09-30T14:43:08.318Z,75.90
2018-09-30T14:45:36.799Z,75.50
2018-09-30T14:48:06.247Z,76.90
2018-09-30T14:50:34.660Z,76.10
2018-09-30T14:53:03.210Z,76.50
2018-09-30T14:55:31.813Z,75.70
2018-09-30T14:58:00.304Z,76.30
2018-09-30T15:00:28.870Z,75.50
2018-09-30T15:02:57.438Z,75.40
2018-09-30T15:05:25.968Z,74.80
2018-09-30T15:07:54.473Z,74.50
2018-09-30T15:10:22.995Z,76.50
2018-09-30T15:12:51.561Z,75.80
2018-09-30T15:15:20.259Z,76.30
2018-09-30T15:17:48.792Z,75.10
2018-09-30T15:20:17.347Z,74.60
2018-09-30T15:22:45.938Z,75.00
2018-09-30T15:25:14.473Z,74.20
2018-09-30T15:27:43.003Z,75.00
2018-09-30T15:30:11.603Z,75.20
2018-09-30T15:32:40.293Z,74.30
2018-09-30T15:35:08.853Z,74.30
2018-09-30T15:37:37.340Z,73.30
2018-09-30T15:40:06.432Z,74.00
2018-09-30T15:42:34.949Z,73.90
2018-09-30T15:45:03.489Z,75.00
2018-09-30T15:47:31.980Z,75.30
2018-09-30T15:50:00.580Z,74.20
2018-09-30T15:52:29.086Z,74.60
2018-09-30T15:54:57.586Z,75.50
2018-09-30T15:57:26.173Z,76.40
2018-09-30T15:59:54.660Z,77.40
2018-09-30T16:02:23.234Z,82.10
2018-09-30T16:04:51.821Z,84.40
2018-09-30T16:07:20.595Z,85.80
2018-09-30T16:09:49.030Z,86.20
2018-09-30T16:12:17.712Z,86.60
2018-09-30T16:14:46.400Z,86.60
2018-09-30T16:17:15.104Z,86.20
2018-09-30T16:19:43.697Z,86.40
2018-09-30T16:23:41.796Z,86.40
2018-09-30T16:26:10.272Z,86.10
2018-09-30T16:28:38.904Z,86.80
2018-09-30T16:31:07.528Z,86.40
2018-09-30T16:33:36.279Z,86.40
2018-09-30T16:36:04.977Z,85.80
2018-09-30T16:38:33.608Z,85.50
2018-09-30T16:41:02.342Z,84.80
2018-09-30T16:43:31.098Z,84.20
2018-09-30T16:45:59.629Z,84.10
2018-09-30T16:48:28.225Z,83.90
2018-09-30T16:52:25.938Z,84.50
2018-09-30T16:54:54.541Z,84.80
2018-09-30T16:57:23.090Z,84.40
2018-09-30T16:59:51.867Z,84.20
2018-09-30T17:02:20.375Z,84.10
2018-09-30T17:04:48.932Z,84.20
2018-09-30T17:07:17.483Z,84.10
2018-09-30T17:09:46.255Z,84.10
2018-09-30T17:12:14.976Z,84.20
2018-09-30T17:14:44.120Z,84.80
2018-09-30T17:17:12.742Z,85.00
2018-09-30T17:19:41.508Z,85.30
2018-09-30T17:22:10.877Z,85.20
2018-09-30T17:24:40.288Z,85.40
2018-09-30T17:27:08.977Z,85.80
2018-09-30T17:29:37.737Z,85.90
2018-09-30T17:32:06.279Z,86.20
2018-09-30T17:34:34.851Z,86.20
2018-09-30T17:37:03.444Z,87.00
2018-09-30T17:39:31.966Z,87.00
2018-09-30T17:42:00.528Z,86.90
2018-09-30T17:44:29.193Z,86.90
2018-09-30T17:46:57.773Z,88.00
2018-09-30T17:49:26.561Z,88.00
2018-09-30T17:51:55.253Z,88.00
2018-09-30T17:54:23.799Z,88.10
2018-09-30T17:56:52.355Z,87.90
2018-09-30T17:59:20.858Z,88.90
2018-09-30T18:01:49.448Z,90.00
2018-09-30T18:04:18.726Z,89.50
2018-09-30T18:06:47.293Z,89.60
2018-09-30T18:09:16.898Z,90.30
2018-09-30T18:11:45.871Z,90.30
2018-09-30T18:14:16.744Z,90.50
2018-09-30T18:16:45.394Z,90.50
2018-09-30T18:19:13.993Z,90.30
2018-09-30T18:21:42.852Z,90.50
2018-09-30T18:24:11.690Z,90.90
2018-09-30T18:26:40.607Z,90.60
2018-09-30T18:29:09.133Z,90.50
2018-09-30T18:31:37.690Z,90.10
2018-09-30T18:34:06.750Z,90.10
2018-09-30T18:36:35.898Z,89.80
2018-09-30T18:39:06.499Z,89.70
2018-09-30T18:41:35.299Z,89.80
2018-09-30T18:44:04.162Z,89.10
2018-09-30T18:46:33.069Z,89.10
2018-09-30T18:49:02.088Z,90.00
2018-09-30T18:51:30.971Z,90.10
2018-09-30T18:53:59.844Z,89.90
2018-09-30T18:56:28.698Z,90.40
2018-09-30T18:58:57.513Z,90.90
2018-09-30T19:01:26.398Z,91.50
2018-09-30T19:03:55.336Z,91.70
2018-09-30T19:06:24.236Z,91.40
2018-09-30T19:08:53.052Z,91.80
2018-09-30T19:11:21.973Z,91.80
2018-09-30T19:13:51.006Z,91.80
2018-09-30T19:16:19.974Z,91.80
2018-09-30T19:18:48.791Z,91.80
2018-09-30T19:21:18.379Z,92.20
2018-09-30T19:23:47.125Z,92.70
2018-09-30T19:26:15.809Z,92.50
2018-09-30T19:28:44.425Z,92.80
2018-09-30T19:31:12.999Z,93.00
2018-09-30T19:33:41.524Z,93.70
2018-09-30T19:36:10.235Z,93.50
2018-09-30T19:38:38.846Z,93.50
2018-09-30T19:41:07.657Z,93.80
2018-09-30T19:43:36.215Z,93.60
2018-09-30T19:46:04.935Z,93.50
2018-09-30T19:48:33.533Z,93.50
2018-09-30T19:51:02.118Z,93.40
2018-09-30T19:53:30.620Z,93.60
2018-09-30T19:55:59.220Z,93.70
2018-09-30T19:58:28.782Z,93.80
2018-09-30T20:00:57.485Z,93.90
2018-09-30T20:03:26.022Z,94.00
2018-09-30T20:05:54.575Z,94.30
2018-09-30T20:08:23.129Z,94.30
2018-09-30T20:10:51.691Z,94.20
2018-09-30T20:13:20.177Z,94.20
2018-09-30T20:15:48.691Z,94.10
2018-09-30T20:18:17.270Z,94.00
2018-09-30T20:20:47.095Z,94.20
2018-09-30T20:23:15.601Z,94.50
2018-09-30T20:25:44.145Z,94.80
2018-09-30T20:28:13.240Z,94.70
2018-09-30T20:30:41.874Z,95.10
2018-09-30T20:33:10.459Z,95.10
2018-09-30T20:35:38.993Z,95.00
2018-09-30T20:38:08.093Z,95.20
2018-09-30T20:40:38.469Z,95.20
2018-09-30T20:43:07.316Z,95.10
2018-09-30T20:45:36.022Z,95.00
2018-09-30T20:48:04.664Z,95.00
2018-09-30T20:50:33.197Z,95.10
2018-09-30T20:53:01.709Z,95.10
2018-09-30T20:55:30.271Z,94.90
2018-09-30T20:57:58.828Z,94.90
2018-09-30T21:00:27.410Z,94.80
2018-09-30T21:02:56.002Z,95.20
2018-09-30T21:06:20.488Z,94.90
2018-09-30T21:08:49.023Z,95.30
2018-09-30T21:11:17.696Z,95.60
2018-09-30T21:13:46.697Z,95.10
2018-09-30T21:16:15.686Z,94.90
2018-09-30T21:18:44.690Z,95.20
2018-09-30T21:21:13.549Z,95.60
2018-09-30T21:23:42.310Z,96.30
2018-09-30T21:26:11.006Z,96.80
2018-09-30T21:28:39.671Z,97.00
2018-09-30T21:31:08.431Z,97.20
2018-09-30T21:33:36.905Z,97.80
2018-09-30T21:36:05.607Z,97.70
2018-09-30T21:38:34.253Z,98.10
2018-09-30T21:41:03.002Z,98.10
2018-09-30T21:43:31.783Z,98.10
2018-09-30T21:46:00.494Z,98.20
2018-09-30T21:48:29.330Z,98.30
2018-09-30T21:50:57.781Z,98.00
2018-09-30T21:53:26.758Z,98.00
2018-09-30T21:55:55.657Z,98.30
2018-09-30T21:58:24.143Z,98.90
2018-09-30T22:00:56.665Z,98.80
2018-09-30T22:03:25.564Z,98.70
2018-09-30T22:05:54.223Z,98.90
2018-09-30T22:08:22.807Z,98.60
2018-09-30T22:10:51.472Z,98.50
2018-09-30T22:13:19.915Z,98.30
2018-09-30T22:15:48.528Z,98.60
2018-09-30T22:18:16.968Z,98.70
2018-09-30T22:20:45.535Z,98.70
2018-09-30T22:23:14.057Z,99.30
2018-09-30T22:25:42.585Z,99.10
2018-09-30T22:28:11.067Z,98.70
2018-09-30T22:30:39.607Z,97.80
2018-09-30T22:33:08.033Z,97.30
2018-09-30T22:35:36.487Z,96.40
2018-09-30T22:38:04.978Z,95.80
2018-09-30T22:40:33.448Z,96.00
2018-09-30T22:43:01.882Z,95.40
2018-09-30T22:45:30.331Z,95.20
2018-09-30T22:47:58.833Z,94.70
2018-09-30T22:50:27.312Z,94.70
2018-09-30T22:52:55.842Z,94.80
2018-09-30T22:55:24.307Z,94.80
2018-09-30T22:57:53.332Z,95.00
2018-09-30T23:00:21.808Z,94.30
2018-09-30T23:02:50.327Z,94.40
2018-09-30T23:05:18.849Z,94.80
2018-09-30T23:07:47.309Z,95.10
2018-09-30T23:10:15.752Z,95.10
2018-09-30T23:12:44.244Z,95.50
2018-09-30T23:15:12.724Z,95.20
2018-09-30T23:17:41.180Z,95.20
2018-09-30T23:20:17.821Z,95.20
2018-09-30T23:22:46.816Z,95.30
2018-09-30T23:25:15.309Z,95.30
2018-09-30T23:27:44.076Z,95.20
2018-09-30T23:30:12.769Z,94.80
2018-09-30T23:32:41.217Z,94.60
2018-09-30T23:35:09.965Z,94.50
2018-09-30T23:37:38.447Z,94.40
2018-09-30T23:40:07.028Z,94.40
2018-09-30T23:42:35.657Z,94.30
2018-09-30T23:45:04.290Z,94.40
2018-09-30T23:47:32.780Z,93.90
2018-09-30T23:50:01.221Z,93.40
2018-09-30T23:52:29.700Z,93.60
2018-09-30T23:54:58.220Z,94.10
2018-09-30T23:57:26.693Z,94.10
2018-09-30T23:59:55.138Z,94.20
